sensor_id;sensor_type;location;lat;lon;timestamp;P1;durP1;ratioP1;P2;durP2;ratioP2
51248;SDS011;39642;47.556;18.728;2023-06-14T00:00:21;8.60;;;2.80;;
51248;SDS011;39642;47.556;18.728;2023-06-14T00:02:47;8.30;;;2.80;;
51248;SDS011;39642;47.556;18.728;2023-06-14T00:05:13;10.35;;;3.30;;
51248;SDS011;39642;47.556;18.728;2023-06-14T00:07:40;8.23;;;3.10;;
51248;SDS011;39642;47.556;18.728;2023-06-14T00:10:08;10.30;;;2.97;;
51248;SDS011;39642;47.556;18.728;2023-06-14T00:12:35;9.45;;;3.12;;
51248;SDS011;39642;47.556;18.728;2023-06-14T00:15:02;9.38;;;2.97;;
51248;SDS011;39642;47.556;18.728;2023-06-14T00:17:28;9.10;;;3.00;;
51248;SDS011;39642;47.556;18.728;2023-06-14T00:20:00;8.93;;;3.03;;
51248;SDS011;39642;47.556;18.728;2023-06-14T00:22:28;8.50;;;3.00;;
51248;SDS011;39642;47.556;18.728;2023-06-14T00:24:54;9.45;;;3.05;;
51248;SDS011;39642;47.556;18.728;2023-06-14T00:27:20;9.52;;;2.90;;
51248;SDS011;39642;47.556;18.728;2023-06-14T00:29:46;8.82;;;2.92;;
51248;SDS011;39642;47.556;18.728;2023-06-14T00:32:11;9.07;;;3.33;;
51248;SDS011;39642;47.556;18.728;2023-06-14T00:34:37;10.38;;;3.03;;
51248;SDS011;39642;47.556;18.728;2023-06-14T00:37:03;11.12;;;2.90;;
51248;SDS011;39642;47.556;18.728;2023-06-14T00:39:29;7.72;;;2.62;;
51248;SDS011;39642;47.556;18.728;2023-06-14T00:41:55;8.35;;;2.92;;
51248;SDS011;39642;47.556;18.728;2023-06-14T00:44:21;8.32;;;2.90;;
51248;SDS011;39642;47.556;18.728;2023-06-14T00:46:47;9.43;;;3.12;;
51248;SDS011;39642;47.556;18.728;2023-06-14T00:49:14;8.60;;;3.10;;
51248;SDS011;39642;47.556;18.728;2023-06-14T00:51:41;9.38;;;2.85;;
51248;SDS011;39642;47.556;18.728;2023-06-14T00:54:08;10.45;;;3.05;;
51248;SDS011;39642;47.556;18.728;2023-06-14T00:56:37;9.50;;;3.20;;
51248;SDS011;39642;47.556;18.728;2023-06-14T00:59:04;8.82;;;2.83;;
51248;SDS011;39642;47.556;18.728;2023-06-14T01:01:30;8.57;;;2.90;;
51248;SDS011;39642;47.556;18.728;2023-06-14T01:03:59;8.43;;;2.72;;
51248;SDS011;39642;47.556;18.728;2023-06-14T01:09:18;10.43;;;2.90;;
51248;SDS011;39642;47.556;18.728;2023-06-14T01:14:41;8.52;;;3.00;;
51248;SDS011;39642;47.556;18.728;2023-06-14T01:17:07;8.15;;;2.70;;
51248;SDS011;39642;47.556;18.728;2023-06-14T01:22:08;9.32;;;2.95;;
51248;SDS011;39642;47.556;18.728;2023-06-14T01:24:34;8.60;;;2.90;;
51248;SDS011;39642;47.556;18.728;2023-06-14T01:27:00;8.73;;;3.00;;
51248;SDS011;39642;47.556;18.728;2023-06-14T01:29:28;10.15;;;2.60;;
51248;SDS011;39642;47.556;18.728;2023-06-14T01:32:01;10.15;;;3.15;;
51248;SDS011;39642;47.556;18.728;2023-06-14T01:34:27;8.43;;;2.80;;
51248;SDS011;39642;47.556;18.728;2023-06-14T01:36:53;9.13;;;2.60;;
51248;SDS011;39642;47.556;18.728;2023-06-14T01:39:20;9.48;;;2.90;;
51248;SDS011;39642;47.556;18.728;2023-06-14T01:41:47;9.60;;;2.87;;
51248;SDS011;39642;47.556;18.728;2023-06-14T01:44:16;8.73;;;2.80;;
51248;SDS011;39642;47.556;18.728;2023-06-14T01:46:44;8.93;;;2.70;;
51248;SDS011;39642;47.556;18.728;2023-06-14T01:49:11;8.48;;;2.75;;
51248;SDS011;39642;47.556;18.728;2023-06-14T01:51:37;8.25;;;2.87;;
51248;SDS011;39642;47.556;18.728;2023-06-14T01:54:03;8.27;;;2.85;;
51248;SDS011;39642;47.556;18.728;2023-06-14T01:56:29;9.40;;;2.97;;
51248;SDS011;39642;47.556;18.728;2023-06-14T01:58:55;10.25;;;2.80;;
51248;SDS011;39642;47.556;18.728;2023-06-14T02:01:21;8.93;;;2.42;;
51248;SDS011;39642;47.556;18.728;2023-06-14T02:03:47;9.15;;;2.60;;
51248;SDS011;39642;47.556;18.728;2023-06-14T02:06:14;8.15;;;2.80;;
51248;SDS011;39642;47.556;18.728;2023-06-14T02:08:41;8.60;;;2.83;;
51248;SDS011;39642;47.556;18.728;2023-06-14T02:11:08;10.75;;;3.30;;
51248;SDS011;39642;47.556;18.728;2023-06-14T02:13:34;9.45;;;2.80;;
51248;SDS011;39642;47.556;18.728;2023-06-14T02:16:00;8.93;;;2.87;;
51248;SDS011;39642;47.556;18.728;2023-06-14T02:18:26;9.02;;;2.90;;
51248;SDS011;39642;47.556;18.728;2023-06-14T02:20:52;8.30;;;2.83;;
51248;SDS011;39642;47.556;18.728;2023-06-14T02:23:18;8.52;;;2.95;;
51248;SDS011;39642;47.556;18.728;2023-06-14T02:25:44;7.62;;;2.58;;
51248;SDS011;39642;47.556;18.728;2023-06-14T02:28:11;9.27;;;2.62;;
51248;SDS011;39642;47.556;18.728;2023-06-14T02:30:37;8.82;;;2.87;;
51248;SDS011;39642;47.556;18.728;2023-06-14T02:33:03;9.77;;;2.90;;
51248;SDS011;39642;47.556;18.728;2023-06-14T02:35:30;10.85;;;2.67;;
51248;SDS011;39642;47.556;18.728;2023-06-14T02:37:56;8.82;;;2.83;;
51248;SDS011;39642;47.556;18.728;2023-06-14T02:40:22;8.45;;;2.72;;
51248;SDS011;39642;47.556;18.728;2023-06-14T02:42:48;9.80;;;2.80;;
51248;SDS011;39642;47.556;18.728;2023-06-14T02:45:14;7.78;;;2.62;;
51248;SDS011;39642;47.556;18.728;2023-06-14T02:47:40;8.27;;;2.60;;
51248;SDS011;39642;47.556;18.728;2023-06-14T02:50:06;8.93;;;2.55;;
51248;SDS011;39642;47.556;18.728;2023-06-14T02:52:33;9.10;;;2.80;;
51248;SDS011;39642;47.556;18.728;2023-06-14T02:54:59;9.32;;;2.80;;
51248;SDS011;39642;47.556;18.728;2023-06-14T02:57:25;7.90;;;2.78;;
51248;SDS011;39642;47.556;18.728;2023-06-14T02:59:51;9.13;;;2.65;;
51248;SDS011;39642;47.556;18.728;2023-06-14T03:02:17;8.10;;;2.50;;
51248;SDS011;39642;47.556;18.728;2023-06-14T03:04:43;8.60;;;2.80;;
51248;SDS011;39642;47.556;18.728;2023-06-14T03:07:12;10.60;;;2.87;;
51248;SDS011;39642;47.556;18.728;2023-06-14T03:09:38;9.13;;;2.90;;
51248;SDS011;39642;47.556;18.728;2023-06-14T03:12:05;8.95;;;2.80;;
51248;SDS011;39642;47.556;18.728;2023-06-14T03:14:32;8.95;;;2.83;;
51248;SDS011;39642;47.556;18.728;2023-06-14T03:16:58;10.20;;;2.70;;
51248;SDS011;39642;47.556;18.728;2023-06-14T03:19:26;8.32;;;2.70;;
51248;SDS011;39642;47.556;18.728;2023-06-14T03:21:52;8.23;;;3.03;;
51248;SDS011;39642;47.556;18.728;2023-06-14T03:24:19;9.25;;;2.90;;
51248;SDS011;39642;47.556;18.728;2023-06-14T03:26:45;9.23;;;3.03;;
51248;SDS011;39642;47.556;18.728;2023-06-14T03:29:11;10.23;;;3.05;;
51248;SDS011;39642;47.556;18.728;2023-06-14T03:31:42;8.77;;;2.80;;
51248;SDS011;39642;47.556;18.728;2023-06-14T03:34:23;9.20;;;2.97;;
51248;SDS011;39642;47.556;18.728;2023-06-14T03:36:49;8.02;;;2.83;;
51248;SDS011;39642;47.556;18.728;2023-06-14T03:39:15;9.40;;;3.03;;
51248;SDS011;39642;47.556;18.728;2023-06-14T03:41:40;8.43;;;3.00;;
51248;SDS011;39642;47.556;18.728;2023-06-14T03:44:06;8.55;;;2.90;;
51248;SDS011;39642;47.556;18.728;2023-06-14T03:46:32;10.00;;;3.00;;
51248;SDS011;39642;47.556;18.728;2023-06-14T03:48:58;10.23;;;3.20;;
51248;SDS011;39642;47.556;18.728;2023-06-14T03:51:24;9.00;;;2.90;;
51248;SDS011;39642;47.556;18.728;2023-06-14T03:53:50;9.82;;;3.30;;
51248;SDS011;39642;47.556;18.728;2023-06-14T03:56:16;8.40;;;3.00;;
51248;SDS011;39642;47.556;18.728;2023-06-14T03:58:42;9.38;;;3.40;;
51248;SDS011;39642;47.556;18.728;2023-06-14T04:01:08;8.70;;;3.30;;
51248;SDS011;39642;47.556;18.728;2023-06-14T04:03:34;8.75;;;3.05;;
51248;SDS011;39642;47.556;18.728;2023-06-14T04:06:00;9.82;;;3.20;;
51248;SDS011;39642;47.556;18.728;2023-06-14T04:08:26;8.18;;;2.90;;
51248;SDS011;39642;47.556;18.728;2023-06-14T04:10:52;11.35;;;3.33;;
51248;SDS011;39642;47.556;18.728;2023-06-14T04:13:18;9.30;;;3.40;;
51248;SDS011;39642;47.556;18.728;2023-06-14T04:15:44;9.30;;;3.50;;
51248;SDS011;39642;47.556;18.728;2023-06-14T04:18:11;9.30;;;3.30;;
51248;SDS011;39642;47.556;18.728;2023-06-14T04:20:37;9.40;;;3.42;;
51248;SDS011;39642;47.556;18.728;2023-06-14T04:23:14;10.13;;;3.30;;
51248;SDS011;39642;47.556;18.728;2023-06-14T04:25:43;9.73;;;3.70;;
51248;SDS011;39642;47.556;18.728;2023-06-14T04:28:13;9.80;;;3.53;;
51248;SDS011;39642;47.556;18.728;2023-06-14T04:30:41;9.77;;;3.60;;
51248;SDS011;39642;47.556;18.728;2023-06-14T04:33:07;11.00;;;3.80;;
51248;SDS011;39642;47.556;18.728;2023-06-14T04:35:35;10.57;;;3.62;;
51248;SDS011;39642;47.556;18.728;2023-06-14T04:38:03;10.82;;;3.90;;
51248;SDS011;39642;47.556;18.728;2023-06-14T04:40:35;10.52;;;3.67;;
51248;SDS011;39642;47.556;18.728;2023-06-14T04:43:08;9.73;;;3.90;;
51248;SDS011;39642;47.556;18.728;2023-06-14T04:45:38;9.75;;;3.90;;
51248;SDS011;39642;47.556;18.728;2023-06-14T04:48:05;9.75;;;3.60;;
51248;SDS011;39642;47.556;18.728;2023-06-14T04:50:32;9.48;;;3.55;;
51248;SDS011;39642;47.556;18.728;2023-06-14T04:52:58;11.00;;;4.28;;
51248;SDS011;39642;47.556;18.728;2023-06-14T04:55:25;10.18;;;3.78;;
51248;SDS011;39642;47.556;18.728;2023-06-14T04:57:51;10.43;;;4.07;;
51248;SDS011;39642;47.556;18.728;2023-06-14T05:00:19;10.20;;;4.03;;
51248;SDS011;39642;47.556;18.728;2023-06-14T05:02:46;9.95;;;3.55;;
51248;SDS011;39642;47.556;18.728;2023-06-14T05:05:12;9.88;;;3.90;;
51248;SDS011;39642;47.556;18.728;2023-06-14T05:07:38;10.85;;;3.83;;
51248;SDS011;39642;47.556;18.728;2023-06-14T05:10:05;13.68;;;4.82;;
51248;SDS011;39642;47.556;18.728;2023-06-14T05:12:32;11.75;;;4.80;;
51248;SDS011;39642;47.556;18.728;2023-06-14T05:14:57;13.93;;;5.18;;
51248;SDS011;39642;47.556;18.728;2023-06-14T05:17:26;12.93;;;5.22;;
51248;SDS011;39642;47.556;18.728;2023-06-14T05:19:53;16.20;;;6.07;;
51248;SDS011;39642;47.556;18.728;2023-06-14T05:22:21;18.12;;;6.80;;
51248;SDS011;39642;47.556;18.728;2023-06-14T05:24:47;27.05;;;10.30;;
51248;SDS011;39642;47.556;18.728;2023-06-14T05:27:13;37.50;;;13.15;;
51248;SDS011;39642;47.556;18.728;2023-06-14T05:29:39;30.55;;;10.90;;
51248;SDS011;39642;47.556;18.728;2023-06-14T05:32:05;24.73;;;10.93;;
51248;SDS011;39642;47.556;18.728;2023-06-14T05:34:32;21.35;;;9.07;;
51248;SDS011;39642;47.556;18.728;2023-06-14T05:36:57;20.70;;;8.35;;
51248;SDS011;39642;47.556;18.728;2023-06-14T05:39:24;21.83;;;10.88;;
51248;SDS011;39642;47.556;18.728;2023-06-14T05:41:50;20.75;;;9.20;;
51248;SDS011;39642;47.556;18.728;2023-06-14T05:44:16;23.50;;;10.27;;
51248;SDS011;39642;47.556;18.728;2023-06-14T05:46:43;16.83;;;7.50;;
51248;SDS011;39642;47.556;18.728;2023-06-14T05:49:09;18.83;;;7.60;;
51248;SDS011;39642;47.556;18.728;2023-06-14T05:51:35;18.40;;;8.43;;
51248;SDS011;39642;47.556;18.728;2023-06-14T05:54:01;19.10;;;8.35;;
51248;SDS011;39642;47.556;18.728;2023-06-14T05:56:27;20.25;;;7.93;;
51248;SDS011;39642;47.556;18.728;2023-06-14T05:58:53;17.45;;;8.10;;
51248;SDS011;39642;47.556;18.728;2023-06-14T06:01:18;21.35;;;7.90;;
51248;SDS011;39642;47.556;18.728;2023-06-14T06:03:45;17.52;;;6.25;;
51248;SDS011;39642;47.556;18.728;2023-06-14T06:06:11;17.90;;;6.95;;
51248;SDS011;39642;47.556;18.728;2023-06-14T06:08:38;18.77;;;5.87;;
51248;SDS011;39642;47.556;18.728;2023-06-14T06:11:03;17.27;;;6.55;;
51248;SDS011;39642;47.556;18.728;2023-06-14T06:13:29;18.42;;;6.00;;
51248;SDS011;39642;47.556;18.728;2023-06-14T06:15:55;19.35;;;6.20;;
51248;SDS011;39642;47.556;18.728;2023-06-14T06:18:21;21.00;;;6.05;;
51248;SDS011;39642;47.556;18.728;2023-06-14T06:20:47;19.05;;;6.55;;
51248;SDS011;39642;47.556;18.728;2023-06-14T06:23:13;19.90;;;6.47;;
51248;SDS011;39642;47.556;18.728;2023-06-14T06:25:39;19.60;;;6.62;;
51248;SDS011;39642;47.556;18.728;2023-06-14T06:28:05;17.50;;;6.20;;
51248;SDS011;39642;47.556;18.728;2023-06-14T06:30:31;21.73;;;6.62;;
51248;SDS011;39642;47.556;18.728;2023-06-14T06:32:57;23.38;;;6.47;;
51248;SDS011;39642;47.556;18.728;2023-06-14T06:35:23;21.52;;;6.60;;
51248;SDS011;39642;47.556;18.728;2023-06-14T06:37:50;17.73;;;6.40;;
51248;SDS011;39642;47.556;18.728;2023-06-14T06:40:15;18.67;;;6.45;;
51248;SDS011;39642;47.556;18.728;2023-06-14T06:42:41;20.27;;;7.32;;
51248;SDS011;39642;47.556;18.728;2023-06-14T06:45:07;18.20;;;7.10;;
51248;SDS011;39642;47.556;18.728;2023-06-14T06:47:33;23.25;;;7.68;;
51248;SDS011;39642;47.556;18.728;2023-06-14T06:49:59;26.73;;;7.40;;
51248;SDS011;39642;47.556;18.728;2023-06-14T06:52:25;21.02;;;7.05;;
51248;SDS011;39642;47.556;18.728;2023-06-14T06:54:51;17.80;;;6.78;;
51248;SDS011;39642;47.556;18.728;2023-06-14T06:57:20;23.95;;;7.32;;
51248;SDS011;39642;47.556;18.728;2023-06-14T06:59:48;20.40;;;8.07;;
51248;SDS011;39642;47.556;18.728;2023-06-14T07:02:15;19.67;;;7.68;;
51248;SDS011;39642;47.556;18.728;2023-06-14T07:04:41;17.62;;;7.12;;
51248;SDS011;39642;47.556;18.728;2023-06-14T07:07:07;23.25;;;7.53;;
51248;SDS011;39642;47.556;18.728;2023-06-14T07:09:35;21.98;;;6.65;;
51248;SDS011;39642;47.556;18.728;2023-06-14T07:12:01;28.90;;;7.80;;
51248;SDS011;39642;47.556;18.728;2023-06-14T07:14:27;23.38;;;7.75;;
51248;SDS011;39642;47.556;18.728;2023-06-14T07:16:52;23.25;;;7.80;;
51248;SDS011;39642;47.556;18.728;2023-06-14T07:19:18;21.60;;;7.32;;
51248;SDS011;39642;47.556;18.728;2023-06-14T07:21:45;18.73;;;7.45;;
51248;SDS011;39642;47.556;18.728;2023-06-14T07:24:10;22.00;;;6.80;;
51248;SDS011;39642;47.556;18.728;2023-06-14T07:26:37;15.55;;;6.32;;
51248;SDS011;39642;47.556;18.728;2023-06-14T07:29:03;24.00;;;7.87;;
51248;SDS011;39642;47.556;18.728;2023-06-14T07:31:29;19.40;;;7.22;;
51248;SDS011;39642;47.556;18.728;2023-06-14T07:33:55;17.87;;;6.37;;
51248;SDS011;39642;47.556;18.728;2023-06-14T07:36:21;20.12;;;7.00;;
51248;SDS011;39642;47.556;18.728;2023-06-14T07:38:47;20.95;;;7.60;;
51248;SDS011;39642;47.556;18.728;2023-06-14T07:41:13;15.80;;;6.12;;
51248;SDS011;39642;47.556;18.728;2023-06-14T07:43:39;18.45;;;6.35;;
51248;SDS011;39642;47.556;18.728;2023-06-14T07:46:05;16.20;;;6.72;;
51248;SDS011;39642;47.556;18.728;2023-06-14T07:48:31;21.52;;;6.93;;
51248;SDS011;39642;47.556;18.728;2023-06-14T07:50:57;20.20;;;7.03;;
51248;SDS011;39642;47.556;18.728;2023-06-14T07:53:23;28.10;;;7.12;;
51248;SDS011;39642;47.556;18.728;2023-06-14T07:55:49;18.92;;;6.75;;
51248;SDS011;39642;47.556;18.728;2023-06-14T07:58:16;26.48;;;7.75;;
51248;SDS011;39642;47.556;18.728;2023-06-14T08:00:42;32.58;;;7.78;;
51248;SDS011;39642;47.556;18.728;2023-06-14T08:03:07;24.00;;;6.30;;
51248;SDS011;39642;47.556;18.728;2023-06-14T08:05:33;24.12;;;6.68;;
51248;SDS011;39642;47.556;18.728;2023-06-14T08:08:00;28.25;;;9.85;;
51248;SDS011;39642;47.556;18.728;2023-06-14T08:10:26;19.37;;;6.47;;
51248;SDS011;39642;47.556;18.728;2023-06-14T08:12:52;16.17;;;6.03;;
51248;SDS011;39642;47.556;18.728;2023-06-14T08:15:17;16.17;;;6.00;;
51248;SDS011;39642;47.556;18.728;2023-06-14T08:17:44;17.20;;;5.95;;
51248;SDS011;39642;47.556;18.728;2023-06-14T08:20:10;21.77;;;6.22;;
51248;SDS011;39642;47.556;18.728;2023-06-14T08:22:37;21.67;;;6.57;;
51248;SDS011;39642;47.556;18.728;2023-06-14T08:25:05;20.60;;;7.00;;
51248;SDS011;39642;47.556;18.728;2023-06-14T08:27:32;20.12;;;6.18;;
51248;SDS011;39642;47.556;18.728;2023-06-14T08:29:58;20.15;;;6.62;;
51248;SDS011;39642;47.556;18.728;2023-06-14T08:32:24;21.37;;;6.40;;
51248;SDS011;39642;47.556;18.728;2023-06-14T08:34:52;20.52;;;6.00;;
51248;SDS011;39642;47.556;18.728;2023-06-14T08:37:18;18.73;;;6.43;;
51248;SDS011;39642;47.556;18.728;2023-06-14T08:39:44;18.80;;;5.90;;
51248;SDS011;39642;47.556;18.728;2023-06-14T08:42:10;19.77;;;6.60;;
51248;SDS011;39642;47.556;18.728;2023-06-14T08:44:39;21.35;;;6.97;;
51248;SDS011;39642;47.556;18.728;2023-06-14T08:47:05;25.23;;;6.55;;
51248;SDS011;39642;47.556;18.728;2023-06-14T08:49:34;31.55;;;6.57;;
51248;SDS011;39642;47.556;18.728;2023-06-14T08:52:03;29.83;;;6.20;;
51248;SDS011;39642;47.556;18.728;2023-06-14T08:54:33;42.95;;;7.72;;
51248;SDS011;39642;47.556;18.728;2023-06-14T08:57:02;30.00;;;6.60;;
51248;SDS011;39642;47.556;18.728;2023-06-14T08:59:32;28.87;;;7.05;;
51248;SDS011;39642;47.556;18.728;2023-06-14T09:02:05;32.25;;;7.50;;
51248;SDS011;39642;47.556;18.728;2023-06-14T09:04:32;34.92;;;6.82;;
51248;SDS011;39642;47.556;18.728;2023-06-14T09:07:10;26.30;;;6.93;;
51248;SDS011;39642;47.556;18.728;2023-06-14T09:10:12;30.95;;;6.90;;
51248;SDS011;39642;47.556;18.728;2023-06-14T09:12:57;23.85;;;6.37;;
51248;SDS011;39642;47.556;18.728;2023-06-14T09:18:33;26.00;;;6.15;;
51248;SDS011;39642;47.556;18.728;2023-06-14T09:21:45;23.83;;;6.62;;
51248;SDS011;39642;47.556;18.728;2023-06-14T09:24:14;17.80;;;6.20;;
51248;SDS011;39642;47.556;18.728;2023-06-14T09:27:18;21.65;;;6.15;;
51248;SDS011;39642;47.556;18.728;2023-06-14T09:29:55;19.15;;;5.93;;
51248;SDS011;39642;47.556;18.728;2023-06-14T09:32:40;21.83;;;6.03;;
51248;SDS011;39642;47.556;18.728;2023-06-14T09:38:21;23.52;;;6.28;;
51248;SDS011;39642;47.556;18.728;2023-06-14T09:47:29;22.42;;;6.72;;
51248;SDS011;39642;47.556;18.728;2023-06-14T09:50:18;29.27;;;5.97;;
51248;SDS011;39642;47.556;18.728;2023-06-14T09:52:52;32.83;;;6.45;;
51248;SDS011;39642;47.556;18.728;2023-06-14T09:55:34;22.73;;;6.10;;
51248;SDS011;39642;47.556;18.728;2023-06-14T09:58:19;23.80;;;6.37;;
51248;SDS011;39642;47.556;18.728;2023-06-14T10:01:00;24.23;;;5.50;;
51248;SDS011;39642;47.556;18.728;2023-06-14T10:04:17;24.55;;;6.12;;
51248;SDS011;39642;47.556;18.728;2023-06-14T10:06:58;20.08;;;5.72;;
51248;SDS011;39642;47.556;18.728;2023-06-14T10:12:56;21.27;;;6.45;;
51248;SDS011;39642;47.556;18.728;2023-06-14T11:12:45;23.87;;;5.55;;
51248;SDS011;39642;47.556;18.728;2023-06-14T11:15:14;17.27;;;4.60;;
51248;SDS011;39642;47.556;18.728;2023-06-14T11:17:49;14.90;;;4.37;;
51248;SDS011;39642;47.556;18.728;2023-06-14T11:20:18;13.88;;;4.95;;
51248;SDS011;39642;47.556;18.728;2023-06-14T11:22:45;14.07;;;4.32;;
51248;SDS011;39642;47.556;18.728;2023-06-14T11:25:13;18.40;;;5.25;;
51248;SDS011;39642;47.556;18.728;2023-06-14T11:27:41;15.65;;;4.90;;
51248;SDS011;39642;47.556;18.728;2023-06-14T11:30:08;17.45;;;4.80;;
51248;SDS011;39642;47.556;18.728;2023-06-14T11:32:37;37.53;;;5.82;;
51248;SDS011;39642;47.556;18.728;2023-06-14T11:35:03;22.98;;;5.82;;
51248;SDS011;39642;47.556;18.728;2023-06-14T11:37:33;24.58;;;5.20;;
51248;SDS011;39642;47.556;18.728;2023-06-14T11:40:00;27.37;;;5.25;;
51248;SDS011;39642;47.556;18.728;2023-06-14T11:42:26;18.67;;;5.00;;
51248;SDS011;39642;47.556;18.728;2023-06-14T11:44:55;18.95;;;4.78;;
51248;SDS011;39642;47.556;18.728;2023-06-14T11:47:22;16.98;;;4.50;;
51248;SDS011;39642;47.556;18.728;2023-06-14T11:49:48;15.80;;;4.12;;
51248;SDS011;39642;47.556;18.728;2023-06-14T11:52:14;19.05;;;4.47;;
51248;SDS011;39642;47.556;18.728;2023-06-14T11:54:40;22.27;;;5.20;;
51248;SDS011;39642;47.556;18.728;2023-06-14T11:57:07;21.05;;;6.18;;
51248;SDS011;39642;47.556;18.728;2023-06-14T11:59:40;21.23;;;6.55;;
51248;SDS011;39642;47.556;18.728;2023-06-14T12:02:06;22.90;;;5.82;;
51248;SDS011;39642;47.556;18.728;2023-06-14T12:04:33;18.52;;;5.22;;
51248;SDS011;39642;47.556;18.728;2023-06-14T12:07:14;18.92;;;5.07;;
51248;SDS011;39642;47.556;18.728;2023-06-14T12:12:21;14.75;;;4.22;;
51248;SDS011;39642;47.556;18.728;2023-06-14T12:14:47;16.25;;;4.72;;
51248;SDS011;39642;47.556;18.728;2023-06-14T12:17:16;12.52;;;4.35;;
51248;SDS011;39642;47.556;18.728;2023-06-14T12:19:43;13.43;;;4.10;;
51248;SDS011;39642;47.556;18.728;2023-06-14T12:22:10;16.55;;;4.80;;
51248;SDS011;39642;47.556;18.728;2023-06-14T12:24:37;43.55;;;5.45;;
51248;SDS011;39642;47.556;18.728;2023-06-14T12:27:04;18.75;;;6.68;;
51248;SDS011;39642;47.556;18.728;2023-06-14T12:29:31;19.75;;;6.82;;
51248;SDS011;39642;47.556;18.728;2023-06-14T12:31:57;24.02;;;5.55;;
51248;SDS011;39642;47.556;18.728;2023-06-14T12:34:24;18.05;;;4.97;;
51248;SDS011;39642;47.556;18.728;2023-06-14T12:36:50;19.55;;;5.22;;
51248;SDS011;39642;47.556;18.728;2023-06-14T12:39:16;17.87;;;5.20;;
51248;SDS011;39642;47.556;18.728;2023-06-14T12:41:43;20.48;;;5.70;;
51248;SDS011;39642;47.556;18.728;2023-06-14T12:44:10;15.63;;;5.93;;
51248;SDS011;39642;47.556;18.728;2023-06-14T12:46:36;16.90;;;5.32;;
51248;SDS011;39642;47.556;18.728;2023-06-14T12:49:05;15.98;;;4.75;;
51248;SDS011;39642;47.556;18.728;2023-06-14T12:51:33;12.05;;;4.03;;
51248;SDS011;39642;47.556;18.728;2023-06-14T12:53:58;15.20;;;4.47;;
51248;SDS011;39642;47.556;18.728;2023-06-14T12:56:24;16.85;;;4.43;;
51248;SDS011;39642;47.556;18.728;2023-06-14T12:58:51;15.20;;;5.43;;
51248;SDS011;39642;47.556;18.728;2023-06-14T13:01:18;18.42;;;4.47;;
51248;SDS011;39642;47.556;18.728;2023-06-14T13:03:45;15.20;;;4.22;;
51248;SDS011;39642;47.556;18.728;2023-06-14T13:06:12;14.77;;;4.37;;
51248;SDS011;39642;47.556;18.728;2023-06-14T13:08:38;18.73;;;4.65;;
51248;SDS011;39642;47.556;18.728;2023-06-14T13:11:04;19.60;;;4.85;;
51248;SDS011;39642;47.556;18.728;2023-06-14T13:13:30;17.67;;;4.70;;
51248;SDS011;39642;47.556;18.728;2023-06-14T13:15:56;21.05;;;5.75;;
51248;SDS011;39642;47.556;18.728;2023-06-14T13:18:22;32.08;;;5.90;;
51248;SDS011;39642;47.556;18.728;2023-06-14T13:20:48;22.25;;;5.00;;
51248;SDS011;39642;47.556;18.728;2023-06-14T13:23:15;16.67;;;5.60;;
51248;SDS011;39642;47.556;18.728;2023-06-14T13:25:42;21.55;;;5.37;;
51248;SDS011;39642;47.556;18.728;2023-06-14T13:28:09;14.95;;;4.78;;
51248;SDS011;39642;47.556;18.728;2023-06-14T13:30:35;18.52;;;4.47;;
51248;SDS011;39642;47.556;18.728;2023-06-14T13:33:01;16.20;;;4.35;;
51248;SDS011;39642;47.556;18.728;2023-06-14T13:35:30;16.05;;;4.57;;
51248;SDS011;39642;47.556;18.728;2023-06-14T13:37:56;18.52;;;4.87;;
51248;SDS011;39642;47.556;18.728;2023-06-14T13:40:22;14.68;;;5.15;;
51248;SDS011;39642;47.556;18.728;2023-06-14T13:42:47;12.63;;;4.03;;
51248;SDS011;39642;47.556;18.728;2023-06-14T13:45:14;13.30;;;3.90;;
51248;SDS011;39642;47.556;18.728;2023-06-14T13:47:40;15.93;;;3.80;;
51248;SDS011;39642;47.556;18.728;2023-06-14T13:50:06;14.85;;;3.90;;
51248;SDS011;39642;47.556;18.728;2023-06-14T13:52:33;13.45;;;3.85;;
51248;SDS011;39642;47.556;18.728;2023-06-14T13:54:59;12.68;;;3.92;;
51248;SDS011;39642;47.556;18.728;2023-06-14T13:57:25;17.52;;;5.97;;
51248;SDS011;39642;47.556;18.728;2023-06-14T13:59:51;16.70;;;5.65;;
51248;SDS011;39642;47.556;18.728;2023-06-14T14:02:20;18.65;;;4.18;;
51248;SDS011;39642;47.556;18.728;2023-06-14T14:04:46;15.43;;;4.12;;
51248;SDS011;39642;47.556;18.728;2023-06-14T14:07:18;11.57;;;3.67;;
51248;SDS011;39642;47.556;18.728;2023-06-14T14:09:44;15.45;;;4.45;;
51248;SDS011;39642;47.556;18.728;2023-06-14T14:12:10;19.90;;;4.37;;
51248;SDS011;39642;47.556;18.728;2023-06-14T14:14:36;18.00;;;4.30;;
51248;SDS011;39642;47.556;18.728;2023-06-14T14:17:02;21.37;;;5.20;;
51248;SDS011;39642;47.556;18.728;2023-06-14T14:19:30;21.50;;;5.85;;
51248;SDS011;39642;47.556;18.728;2023-06-14T14:21:56;19.77;;;5.20;;
51248;SDS011;39642;47.556;18.728;2023-06-14T14:24:21;18.45;;;5.20;;
51248;SDS011;39642;47.556;18.728;2023-06-14T14:26:47;17.87;;;4.68;;
51248;SDS011;39642;47.556;18.728;2023-06-14T14:29:15;17.08;;;5.10;;
51248;SDS011;39642;47.556;18.728;2023-06-14T14:31:42;14.60;;;4.00;;
51248;SDS011;39642;47.556;18.728;2023-06-14T14:34:08;12.55;;;3.83;;
51248;SDS011;39642;47.556;18.728;2023-06-14T14:36:34;11.50;;;3.87;;
51248;SDS011;39642;47.556;18.728;2023-06-14T14:39:03;11.77;;;4.20;;
51248;SDS011;39642;47.556;18.728;2023-06-14T14:41:30;10.98;;;3.75;;
51248;SDS011;39642;47.556;18.728;2023-06-14T14:43:55;11.35;;;3.80;;
51248;SDS011;39642;47.556;18.728;2023-06-14T14:46:21;11.98;;;3.80;;
51248;SDS011;39642;47.556;18.728;2023-06-14T14:48:47;13.00;;;4.20;;
51248;SDS011;39642;47.556;18.728;2023-06-14T14:51:13;12.70;;;4.30;;
51248;SDS011;39642;47.556;18.728;2023-06-14T14:53:39;12.02;;;4.43;;
51248;SDS011;39642;47.556;18.728;2023-06-14T14:56:05;11.63;;;3.95;;
51248;SDS011;39642;47.556;18.728;2023-06-14T14:58:30;11.68;;;3.67;;
51248;SDS011;39642;47.556;18.728;2023-06-14T15:00:56;12.20;;;4.15;;
51248;SDS011;39642;47.556;18.728;2023-06-14T15:03:22;11.38;;;4.07;;
51248;SDS011;39642;47.556;18.728;2023-06-14T15:05:48;10.93;;;3.40;;
51248;SDS011;39642;47.556;18.728;2023-06-14T15:08:14;10.00;;;3.60;;
51248;SDS011;39642;47.556;18.728;2023-06-14T15:10:40;11.35;;;3.80;;
51248;SDS011;39642;47.556;18.728;2023-06-14T15:13:07;10.95;;;3.37;;
51248;SDS011;39642;47.556;18.728;2023-06-14T15:15:33;9.65;;;3.60;;
51248;SDS011;39642;47.556;18.728;2023-06-14T15:18:00;10.00;;;3.58;;
51248;SDS011;39642;47.556;18.728;2023-06-14T15:20:26;10.52;;;3.45;;
51248;SDS011;39642;47.556;18.728;2023-06-14T15:22:52;11.63;;;3.72;;
51248;SDS011;39642;47.556;18.728;2023-06-14T15:25:21;9.82;;;3.47;;
51248;SDS011;39642;47.556;18.728;2023-06-14T15:27:47;9.57;;;3.33;;
51248;SDS011;39642;47.556;18.728;2023-06-14T15:30:13;10.43;;;3.53;;
51248;SDS011;39642;47.556;18.728;2023-06-14T15:32:38;10.82;;;3.62;;
51248;SDS011;39642;47.556;18.728;2023-06-14T15:35:05;11.20;;;3.20;;
51248;SDS011;39642;47.556;18.728;2023-06-14T15:37:31;9.43;;;3.70;;
51248;SDS011;39642;47.556;18.728;2023-06-14T15:39:56;9.20;;;3.22;;
51248;SDS011;39642;47.556;18.728;2023-06-14T15:42:22;11.07;;;3.50;;
51248;SDS011;39642;47.556;18.728;2023-06-14T15:44:48;9.90;;;3.25;;
51248;SDS011;39642;47.556;18.728;2023-06-14T15:47:14;9.38;;;3.17;;
51248;SDS011;39642;47.556;18.728;2023-06-14T15:49:40;9.35;;;3.17;;
51248;SDS011;39642;47.556;18.728;2023-06-14T15:52:06;9.88;;;3.37;;